sensor_id;sensor_type;location;lat;lon;timestamp;temperature;humidity
8664;DHT22;4369;47.842;13.096;2022-12-10T13:21:29;2.50;99.90
8664;DHT22;4369;47.842;13.096;2022-12-10T13:24:09;2.60;99.90
8664;DHT22;4369;47.842;13.096;2022-12-10T13:26:36;2.60;99.90
8664;DHT22;4369;47.842;13.096;2022-12-10T13:29:23;2.70;99.90
8664;DHT22;4369;47.842;13.096;2022-12-10T13:32:02;2.60;99.90
8664;DHT22;4369;47.842;13.096;2022-12-10T13:34:32;2.80;99.90
8664;DHT22;4369;47.842;13.096;2022-12-10T13:37:17;2.60;99.90
8664;DHT22;4369;47.842;13.096;2022-12-10T13:39:54;2.70;99.90
8664;DHT22;4369;47.842;13.096;2022-12-10T13:42:29;2.80;99.90
8664;DHT22;4369;47.842;13.096;2022-12-10T13:45:32;3.00;99.90
8664;DHT22;4369;47.842;13.096;2022-12-10T13:48:29;3.00;99.90
8664;DHT22;4369;47.842;13.096;2022-12-10T13:51:31;3.10;99.90
8664;DHT22;4369;47.842;13.096;2022-12-10T13:54:10;3.00;99.90
8664;DHT22;4369;47.842;13.096;2022-12-10T13:56:45;3.10;99.90
8664;DHT22;4369;47.842;13.096;2022-12-10T13:59:27;3.00;99.90
8664;DHT22;4369;47.842;13.096;2022-12-10T14:02:06;2.90;99.90
8664;DHT22;4369;47.842;13.096;2022-12-10T14:04:47;2.90;99.90
8664;DHT22;4369;47.842;13.096;2022-12-10T14:07:16;3.00;99.90
8664;DHT22;4369;47.842;13.096;2022-12-10T14:09:49;2.90;99.90
8664;DHT22;4369;47.842;13.096;2022-12-10T14:12:20;3.00;99.90
8664;DHT22;4369;47.842;13.096;2022-12-10T14:14:54;2.80;99.90
8664;DHT22;4369;47.842;13.096;2022-12-10T14:17:28;2.90;99.90
8664;DHT22;4369;47.842;13.096;2022-12-10T14:19:56;2.80;99.90
8664;DHT22;4369;47.842;13.096;2022-12-10T14:22:30;2.80;99.90
8664;DHT22;4369;47.842;13.096;2022-12-10T14:25:01;2.70;99.90
8664;DHT22;4369;47.842;13.096;2022-12-10T14:27:32;2.70;99.90
8664;DHT22;4369;47.842;13.096;2022-12-10T14:30:00;2.80;99.90
8664;DHT22;4369;47.842;13.096;2022-12-10T14:32:32;2.80;99.90
8664;DHT22;4369;47.842;13.096;2022-12-10T14:35:00;2.70;99.90
8664;DHT22;4369;47.842;13.096;2022-12-10T14:37:30;2.70;99.90
8664;DHT22;4369;47.842;13.096;2022-12-10T14:39:59;2.60;99.90
8664;DHT22;4369;47.842;13.096;2022-12-10T14:42:27;2.60;99.90
8664;DHT22;4369;47.842;13.096;2022-12-10T14:44:57;2.50;99.90
8664;DHT22;4369;47.842;13.096;2022-12-10T14:47:24;2.40;99.90
8664;DHT22;4369;47.842;13.096;2022-12-10T14:49:54;2.50;99.90
8664;DHT22;4369;47.842;13.096;2022-12-10T14:52:23;2.50;99.90
8664;DHT22;4369;47.842;13.096;2022-12-10T14:54:52;2.40;99.90
8664;DHT22;4369;47.842;13.096;2022-12-10T14:57:23;2.40;99.90
8664;DHT22;4369;47.842;13.096;2022-12-10T14:59:59;2.30;99.90
8664;DHT22;4369;47.842;13.096;2022-12-10T15:02:31;2.40;99.90
8664;DHT22;4369;47.842;13.096;2022-12-10T15:04:59;2.20;99.90
8664;DHT22;4369;47.842;13.096;2022-12-10T15:07:31;2.20;99.90
8664;DHT22;4369;47.842;13.096;2022-12-10T15:10:01;2.30;99.90
8664;DHT22;4369;47.842;13.096;2022-12-10T15:12:37;2.20;99.90
8664;DHT22;4369;47.842;13.096;2022-12-10T15:15:14;2.10;99.90
8664;DHT22;4369;47.842;13.096;2022-12-10T15:17:51;2.10;99.90
8664;DHT22;4369;47.842;13.096;2022-12-10T15:20:22;2.20;99.90
8664;DHT22;4369;47.842;13.096;2022-12-10T15:22:49;2.10;99.90
8664;DHT22;4369;47.842;13.096;2022-12-10T15:25:23;2.10;99.90
8664;DHT22;4369;47.842;13.096;2022-12-10T15:27:57;2.00;99.90
8664;DHT22;4369;47.842;13.096;2022-12-10T15:30:34;2.00;99.90
8664;DHT22;4369;47.842;13.096;2022-12-10T15:33:01;2.00;99.90
8664;DHT22;4369;47.842;13.096;2022-12-10T15:35:35;2.00;99.90
8664;DHT22;4369;47.842;13.096;2022-12-10T15:38:02;2.10;99.90
8664;DHT22;4369;47.842;13.096;2022-12-10T15:40:30;2.10;99.90
8664;DHT22;4369;47.842;13.096;2022-12-10T15:43:11;2.10;99.90
8664;DHT22;4369;47.842;13.096;2022-12-10T15:45:41;2.20;99.90
8664;DHT22;4369;47.842;13.096;2022-12-10T15:48:09;2.30;99.90
8664;DHT22;4369;47.842;13.096;2022-12-10T15:50:37;2.30;99.90
8664;DHT22;4369;47.842;13.096;2022-12-10T15:53:04;2.30;99.90
8664;DHT22;4369;47.842;13.096;2022-12-10T15:55:30;2.20;99.90
8664;DHT22;4369;47.842;13.096;2022-12-10T15:57:59;2.30;99.90
8664;DHT22;4369;47.842;13.096;2022-12-10T16:00:27;2.10;99.90
8664;DHT22;4369;47.842;13.096;2022-12-10T16:02:55;2.10;99.90
8664;DHT22;4369;47.842;13.096;2022-12-10T16:05:25;2.10;99.90
8664;DHT22;4369;47.842;13.096;2022-12-10T16:07:55;2.10;99.90
8664;DHT22;4369;47.842;13.096;2022-12-10T16:10:24;2.10;99.90
8664;DHT22;4369;47.842;13.096;2022-12-10T16:12:59;2.30;99.90
8664;DHT22;4369;47.842;13.096;2022-12-10T16:15:28;2.40;99.90
8664;DHT22;4369;47.842;13.096;2022-12-10T16:17:56;2.40;99.90
8664;DHT22;4369;47.842;13.096;2022-12-10T16:20:26;2.30;99.90
8664;DHT22;4369;47.842;13.096;2022-12-10T16:22:53;2.30;99.90
8664;DHT22;4369;47.842;13.096;2022-12-10T16:25:22;2.20;99.90
8664;DHT22;4369;47.842;13.096;2022-12-10T16:27:49;2.20;99.90
8664;DHT22;4369;47.842;13.096;2022-12-10T16:30:19;2.20;99.90
8664;DHT22;4369;47.842;13.096;2022-12-10T16:32:47;2.30;99.90
8664;DHT22;4369;47.842;13.096;2022-12-10T16:35:15;2.40;99.90
8664;DHT22;4369;47.842;13.096;2022-12-10T16:37:43;2.30;99.90
8664;DHT22;4369;47.842;13.096;2022-12-10T16:40:11;2.30;99.90
8664;DHT22;4369;47.842;13.096;2022-12-10T16:42:38;2.30;99.90
8664;DHT22;4369;47.842;13.096;2022-12-10T16:45:12;2.40;99.90
8664;DHT22;4369;47.842;13.096;2022-12-10T16:47:41;2.40;99.90
8664;DHT22;4369;47.842;13.096;2022-12-10T16:50:08;2.40;99.90
8664;DHT22;4369;47.842;13.096;2022-12-10T16:52:36;2.40;99.90
8664;DHT22;4369;47.842;13.096;2022-12-10T16:55:04;2.30;99.90
8664;DHT22;4369;47.842;13.096;2022-12-10T16:57:31;2.30;99.90
8664;DHT22;4369;47.842;13.096;2022-12-10T16:59:58;2.30;99.90
8664;DHT22;4369;47.842;13.096;2022-12-10T17:02:24;2.30;99.90
8664;DHT22;4369;47.842;13.096;2022-12-10T17:04:53;2.30;99.90
8664;DHT22;4369;47.842;13.096;2022-12-10T17:07:19;2.20;99.90
8664;DHT22;4369;47.842;13.096;2022-12-10T17:09:46;2.20;99.90
8664;DHT22;4369;47.842;13.096;2022-12-10T17:12:13;2.30;99.90
8664;DHT22;4369;47.842;13.096;2022-12-10T17:14:42;2.30;99.90
8664;DHT22;4369;47.842;13.096;2022-12-10T17:17:12;2.20;99.90
8664;DHT22;4369;47.842;13.096;2022-12-10T17:19:40;2.20;99.90
8664;DHT22;4369;47.842;13.096;2022-12-10T17:22:09;2.10;99.90
8664;DHT22;4369;47.842;13.096;2022-12-10T17:24:36;2.10;99.90
8664;DHT22;4369;47.842;13.096;2022-12-10T17:27:05;2.00;99.90
8664;DHT22;4369;47.842;13.096;2022-12-10T17:29:35;2.00;99.90
8664;DHT22;4369;47.842;13.096;2022-12-10T17:32:04;2.00;99.90
8664;DHT22;4369;47.842;13.096;2022-12-10T17:34:31;2.10;99.90
8664;DHT22;4369;47.842;13.096;2022-12-10T17:36:58;2.10;99.90
8664;DHT22;4369;47.842;13.096;2022-12-10T17:39:26;2.20;99.90
8664;DHT22;4369;47.842;13.096;2022-12-10T17:41:54;2.00;99.90
8664;DHT22;4369;47.842;13.096;2022-12-10T17:44:21;2.10;99.90
8664;DHT22;4369;47.842;13.096;2022-12-10T17:46:48;2.10;99.90
8664;DHT22;4369;47.842;13.096;2022-12-10T17:49:16;2.10;99.90
8664;DHT22;4369;47.842;13.096;2022-12-10T17:51:43;2.20;99.90
8664;DHT22;4369;47.842;13.096;2022-12-10T17:54:10;2.20;99.90
8664;DHT22;4369;47.842;13.096;2022-12-10T17:56:39;2.10;99.90
8664;DHT22;4369;47.842;13.096;2022-12-10T17:59:07;2.00;99.90
8664;DHT22;4369;47.842;13.096;2022-12-10T18:01:34;2.10;99.90
8664;DHT22;4369;47.842;13.096;2022-12-10T18:04:00;1.90;99.90
8664;DHT22;4369;47.842;13.096;2022-12-10T18:06:29;1.80;99.90
8664;DHT22;4369;47.842;13.096;2022-12-10T18:08:58;1.80;99.90
8664;DHT22;4369;47.842;13.096;2022-12-10T18:11:27;1.70;99.90
8664;DHT22;4369;47.842;13.096;2022-12-10T18:13:56;1.70;99.90
8664;DHT22;4369;47.842;13.096;2022-12-10T18:16:26;1.70;99.90
8664;DHT22;4369;47.842;13.096;2022-12-10T18:18:56;1.70;99.90
8664;DHT22;4369;47.842;13.096;2022-12-10T18:21:24;1.60;99.90
8664;DHT22;4369;47.842;13.096;2022-12-10T18:23:51;1.70;99.90
8664;DHT22;4369;47.842;13.096;2022-12-10T18:26:20;1.80;99.90
8664;DHT22;4369;47.842;13.096;2022-12-10T18:28:50;1.80;99.90
8664;DHT22;4369;47.842;13.096;2022-12-10T18:31:22;1.80;99.90
8664;DHT22;4369;47.842;13.096;2022-12-10T18:33:52;1.80;99.90
8664;DHT22;4369;47.842;13.096;2022-12-10T18:36:22;1.70;99.90
8664;DHT22;4369;47.842;13.096;2022-12-10T18:38:51;1.70;99.90
8664;DHT22;4369;47.842;13.096;2022-12-10T18:41:18;1.80;99.90
8664;DHT22;4369;47.842;13.096;2022-12-10T18:43:46;1.80;99.90
8664;DHT22;4369;47.842;13.096;2022-12-10T18:46:15;1.80;99.90
8664;DHT22;4369;47.842;13.096;2022-12-10T18:48:43;1.80;99.90
8664;DHT22;4369;47.842;13.096;2022-12-10T18:51:12;1.80;99.90
8664;DHT22;4369;47.842;13.096;2022-12-10T18:53:41;1.80;99.90
8664;DHT22;4369;47.842;13.096;2022-12-10T18:56:11;1.80;99.90
8664;DHT22;4369;47.842;13.096;2022-12-10T18:58:38;1.90;99.90
8664;DHT22;4369;47.842;13.096;2022-12-10T19:01:06;1.90;99.90
8664;DHT22;4369;47.842;13.096;2022-12-10T19:03:33;2.00;99.90
8664;DHT22;4369;47.842;13.096;2022-12-10T19:06:02;1.90;99.90
8664;DHT22;4369;47.842;13.096;2022-12-10T19:08:29;1.90;99.90
8664;DHT22;4369;47.842;13.096;2022-12-10T19:10:56;1.90;99.90
8664;DHT22;4369;47.842;13.096;2022-12-10T19:13:23;1.80;99.90
8664;DHT22;4369;47.842;13.096;2022-12-10T19:15:50;1.70;99.90
8664;DHT22;4369;47.842;13.096;2022-12-10T19:18:18;1.80;99.90
8664;DHT22;4369;47.842;13.096;2022-12-10T19:20:46;1.80;99.90
8664;DHT22;4369;47.842;13.096;2022-12-10T19:23:17;1.60;99.90
8664;DHT22;4369;47.842;13.096;2022-12-10T19:25:44;1.60;99.90
8664;DHT22;4369;47.842;13.096;2022-12-10T19:28:11;1.60;99.90
8664;DHT22;4369;47.842;13.096;2022-12-10T19:30:38;1.70;99.90
8664;DHT22;4369;47.842;13.096;2022-12-10T19:33:05;1.70;99.90
8664;DHT22;4369;47.842;13.096;2022-12-10T19:35:34;1.80;99.90
8664;DHT22;4369;47.842;13.096;2022-12-10T19:38:01;1.70;99.90
8664;DHT22;4369;47.842;13.096;2022-12-10T19:40:31;1.70;99.90
8664;DHT22;4369;47.842;13.096;2022-12-10T19:42:59;1.70;99.90
8664;DHT22;4369;47.842;13.096;2022-12-10T19:45:27;1.50;99.90
8664;DHT22;4369;47.842;13.096;2022-12-10T19:47:57;1.60;99.90
8664;DHT22;4369;47.842;13.096;2022-12-10T19:50:26;1.50;99.90
8664;DHT22;4369;47.842;13.096;2022-12-10T19:55:26;1.50;99.90
8664;DHT22;4369;47.842;13.096;2022-12-10T19:57:55;1.50;99.90
8664;DHT22;4369;47.842;13.096;2022-12-10T20:00:25;1.40;99.90
8664;DHT22;4369;47.842;13.096;2022-12-10T20:02:52;1.40;99.90
8664;DHT22;4369;47.842;13.096;2022-12-10T20:05:19;1.40;99.90
8664;DHT22;4369;47.842;13.096;2022-12-10T20:07:47;1.40;99.90
8664;DHT22;4369;47.842;13.096;2022-12-10T20:10:19;1.40;99.90
8664;DHT22;4369;47.842;13.096;2022-12-10T20:12:47;1.40;99.90
8664;DHT22;4369;47.842;13.096;2022-12-10T20:15:17;1.60;99.90
8664;DHT22;4369;47.842;13.096;2022-12-10T20:17:44;1.50;99.90
8664;DHT22;4369;47.842;13.096;2022-12-10T20:20:17;1.50;99.90
8664;DHT22;4369;47.842;13.096;2022-12-10T20:22:44;1.60;99.90
8664;DHT22;4369;47.842;13.096;2022-12-10T20:25:12;1.60;99.90
8664;DHT22;4369;47.842;13.096;2022-12-10T20:27:40;1.70;99.90
8664;DHT22;4369;47.842;13.096;2022-12-10T20:30:10;1.70;99.90
8664;DHT22;4369;47.842;13.096;2022-12-10T20:32:41;1.60;99.90
8664;DHT22;4369;47.842;13.096;2022-12-10T20:35:09;1.50;99.90
8664;DHT22;4369;47.842;13.096;2022-12-10T20:37:36;1.50;99.90
8664;DHT22;4369;47.842;13.096;2022-12-10T20:40:04;1.60;99.90
8664;DHT22;4369;47.842;13.096;2022-12-10T20:42:32;1.40;99.90
8664;DHT22;4369;47.842;13.096;2022-12-10T20:44:59;1.40;99.90
8664;DHT22;4369;47.842;13.096;2022-12-10T20:47:26;1.40;99.90
8664;DHT22;4369;47.842;13.096;2022-12-10T20:49:58;1.50;99.90
8664;DHT22;4369;47.842;13.096;2022-12-10T20:52:25;1.50;99.90
8664;DHT22;4369;47.842;13.096;2022-12-10T20:54:52;1.50;99.90
8664;DHT22;4369;47.842;13.096;2022-12-10T20:57:19;1.30;99.90
8664;DHT22;4369;47.842;13.096;2022-12-10T20:59:46;1.30;99.90
8664;DHT22;4369;47.842;13.096;2022-12-10T21:02:13;1.30;99.90
8664;DHT22;4369;47.842;13.096;2022-12-10T21:04:40;1.40;99.90
8664;DHT22;4369;47.842;13.096;2022-12-10T21:07:12;1.40;99.90
8664;DHT22;4369;47.842;13.096;2022-12-10T21:09:39;1.30;99.90
8664;DHT22;4369;47.842;13.096;2022-12-10T21:12:08;1.40;99.90
8664;DHT22;4369;47.842;13.096;2022-12-10T21:14:35;1.30;99.90
8664;DHT22;4369;47.842;13.096;2022-12-10T21:17:04;1.10;99.90
8664;DHT22;4369;47.842;13.096;2022-12-10T21:19:31;1.20;99.90
8664;DHT22;4369;47.842;13.096;2022-12-10T21:21:58;1.20;99.90
8664;DHT22;4369;47.842;13.096;2022-12-10T21:24:28;1.20;99.90
8664;DHT22;4369;47.842;13.096;2022-12-10T21:26:55;1.30;99.90
8664;DHT22;4369;47.842;13.096;2022-12-10T21:29:22;1.20;99.90
8664;DHT22;4369;47.842;13.096;2022-12-10T21:31:50;1.10;99.90
8664;DHT22;4369;47.842;13.096;2022-12-10T21:34:17;1.00;99.90
8664;DHT22;4369;47.842;13.096;2022-12-10T21:36:44;0.90;99.90
8664;DHT22;4369;47.842;13.096;2022-12-10T21:39:12;0.90;99.90
8664;DHT22;4369;47.842;13.096;2022-12-10T21:41:40;0.70;99.90
8664;DHT22;4369;47.842;13.096;2022-12-10T21:44:24;0.80;99.90
8664;DHT22;4369;47.842;13.096;2022-12-10T21:46:51;0.80;99.90
8664;DHT22;4369;47.842;13.096;2022-12-10T21:49:18;0.80;99.90
8664;DHT22;4369;47.842;13.096;2022-12-10T21:51:46;0.80;99.90
8664;DHT22;4369;47.842;13.096;2022-12-10T21:54:13;0.80;99.90
8664;DHT22;4369;47.842;13.096;2022-12-10T21:56:41;0.80;99.90
8664;DHT22;4369;47.842;13.096;2022-12-10T21:59:09;0.90;99.90
8664;DHT22;4369;47.842;13.096;2022-12-10T22:01:36;0.70;99.90
8664;DHT22;4369;47.842;13.096;2022-12-10T22:04:03;0.70;99.90
8664;DHT22;4369;47.842;13.096;2022-12-10T22:06:32;0.70;99.90
8664;DHT22;4369;47.842;13.096;2022-12-10T22:09:07;0.60;99.90
8664;DHT22;4369;47.842;13.096;2022-12-10T22:11:38;0.50;99.90
8664;DHT22;4369;47.842;13.096;2022-12-10T22:14:06;0.60;99.90
8664;DHT22;4369;47.842;13.096;2022-12-10T22:16:33;0.60;99.90
8664;DHT22;4369;47.842;13.096;2022-12-10T22:19:01;0.70;99.90
8664;DHT22;4369;47.842;13.096;2022-12-10T22:21:28;0.60;99.90
8664;DHT22;4369;47.842;13.096;2022-12-10T22:23:56;0.70;99.90
8664;DHT22;4369;47.842;13.096;2022-12-10T22:26:23;0.60;99.90
8664;DHT22;4369;47.842;13.096;2022-12-10T22:28:50;0.70;99.90
8664;DHT22;4369;47.842;13.096;2022-12-10T22:31:19;0.70;99.90
8664;DHT22;4369;47.842;13.096;2022-12-10T22:33:47;0.80;99.90
8664;DHT22;4369;47.842;13.096;2022-12-10T22:36:14;0.90;99.90
8664;DHT22;4369;47.842;13.096;2022-12-10T22:38:42;0.80;99.90
8664;DHT22;4369;47.842;13.096;2022-12-10T22:41:10;0.70;99.90
8664;DHT22;4369;47.842;13.096;2022-12-10T22:43:37;0.80;99.90
8664;DHT22;4369;47.842;13.096;2022-12-10T22:46:04;0.70;99.90
8664;DHT22;4369;47.842;13.096;2022-12-10T22:48:33;0.60;99.90
8664;DHT22;4369;47.842;13.096;2022-12-10T22:51:01;0.50;99.90
8664;DHT22;4369;47.842;13.096;2022-12-10T22:53:29;0.50;99.90
8664;DHT22;4369;47.842;13.096;2022-12-10T22:55:57;0.30;99.90
8664;DHT22;4369;47.842;13.096;2022-12-10T22:58:25;0.30;99.90
8664;DHT22;4369;47.842;13.096;2022-12-10T23:00:52;0.40;99.90
8664;DHT22;4369;47.842;13.096;2022-12-10T23:03:20;0.30;99.90
8664;DHT22;4369;47.842;13.096;2022-12-10T23:05:50;0.20;99.90
8664;DHT22;4369;47.842;13.096;2022-12-10T23:08:18;0.20;99.90
8664;DHT22;4369;47.842;13.096;2022-12-10T23:10:46;0.20;99.90
8664;DHT22;4369;47.842;13.096;2022-12-10T23:13:14;0.20;99.90
8664;DHT22;4369;47.842;13.096;2022-12-10T23:15:47;0.20;99.90
8664;DHT22;4369;47.842;13.096;2022-12-10T23:18:15;0.20;99.90
8664;DHT22;4369;47.842;13.096;2022-12-10T23:20:42;0.30;99.90
8664;DHT22;4369;47.842;13.096;2022-12-10T23:23:10;0.20;99.90
8664;DHT22;4369;47.842;13.096;2022-12-10T23:25:39;0.20;99.90
8664;DHT22;4369;47.842;13.096;2022-12-10T23:28:07;0.20;99.90
8664;DHT22;4369;47.842;13.096;2022-12-10T23:30:35;0.20;99.90
8664;DHT22;4369;47.842;13.096;2022-12-10T23:33:02;0.20;99.90
8664;DHT22;4369;47.842;13.096;2022-12-10T23:35:31;0.20;99.90
8664;DHT22;4369;47.842;13.096;2022-12-10T23:37:58;0.20;99.90
8664;DHT22;4369;47.842;13.096;2022-12-10T23:40:26;0.20;99.90
8664;DHT22;4369;47.842;13.096;2022-12-10T23:42:54;0.10;99.90
8664;DHT22;4369;47.842;13.096;2022-12-10T23:45:21;0.20;99.90
8664;DHT22;4369;47.842;13.096;2022-12-10T23:47:48;0.30;99.90
8664;DHT22;4369;47.842;13.096;2022-12-10T23:50:16;0.30;99.90
8664;DHT22;4369;47.842;13.096;2022-12-10T23:52:43;0.20;99.90
8664;DHT22;4369;47.842;13.096;2022-12-10T23:55:11;0.20;99.90
8664;DHT22;4369;47.842;13.096;2022-12-10T23:57:40;0.10;99.90
